Time;durP1;ratioP1;P1;durP2;ratioP2;P2;SDS_P1;SDS_P2;PMS_P1;PMS_P2;Temp;Humidity;BMP_temperature;BMP_pressure;BME280_temperature;BME280_humidity;BME280_pressure;Samples;Min_cycle;Max_cycle;Signal;HPM_P1;HPM_P2
2021/11/29 00:00:57;;;;;;;85.42;43.20;;;;;;;2.28;79.39;99430.82;1693161;83;21066;-81
2021/11/29 00:03:33;;;;;;;79.47;40.17;;;;;;;2.25;79.66;99441.50;1693111;84;21285;-82
2021/11/29 00:06:02;;;;;;;81.63;40.08;;;;;;;2.28;79.79;99437.31;1693080;84;21116;-82
2021/11/29 00:08:35;;;;;;;79.12;40.48;;;;;;;2.30;79.84;99426.56;1693018;84;21933;-82
2021/11/29 00:11:02;;;;;;;76.42;40.08;;;;;;;2.32;79.80;99421.44;1668865;84;21355;-82
2021/11/29 00:13:28;;;;;;;81.72;39.70;;;;;;;2.37;79.86;99410.80;1693224;84;21093;-82
2021/11/29 00:15:55;;;;;;;79.03;41.48;;;;;;;2.41;79.85;99407.48;1693091;84;21085;-82
2021/11/29 00:18:27;;;;;;;77.30;40.08;;;;;;;2.43;79.80;99411.02;1692576;84;21141;-81
2021/11/29 00:20:53;;;;;;;87.85;42.88;;;;;;;2.37;79.55;99407.34;1692758;84;22584;-82
2021/11/29 00:23:20;;;;;;;88.03;43.70;;;;;;;2.30;79.53;99406.22;1692758;84;21054;-82
2021/11/29 00:25:47;;;;;;;86.05;42.95;;;;;;;2.28;79.67;99411.34;1692723;84;21722;-82
2021/11/29 00:28:14;;;;;;;83.72;42.60;;;;;;;2.27;79.73;99414.79;1692666;84;21247;-81
2021/11/29 00:30:41;;;;;;;82.10;40.75;;;;;;;2.27;79.87;99419.07;1692643;84;21081;-82
2021/11/29 00:33:08;;;;;;;76.07;38.53;;;;;;;2.29;79.87;99423.91;1692771;84;22704;-82
2021/11/29 00:35:35;;;;;;;80.32;39.75;;;;;;;2.36;80.03;99410.75;1692786;84;21613;-82
2021/11/29 00:38:02;;;;;;;74.20;38.90;;;;;;;2.37;79.91;99403.02;1692612;84;21682;-82
2021/11/29 00:40:28;;;;;;;78.40;41.05;;;;;;;2.41;80.04;99410.08;1692574;84;21090;-82
2021/11/29 00:42:55;;;;;;;78.05;41.73;;;;;;;2.46;79.95;99407.24;1692755;84;21109;-82
2021/11/29 00:45:24;;;;;;;96.72;47.98;;;;;;;2.49;80.03;99406.03;1668740;84;21070;-82
2021/11/29 00:47:50;;;;;;;92.53;45.52;;;;;;;2.55;80.05;99412.28;1693184;84;21050;-82
2021/11/29 00:50:18;;;;;;;89.90;43.98;;;;;;;2.59;79.96;99411.55;1693191;84;21586;-82
2021/11/29 00:52:45;;;;;;;84.80;42.43;;;;;;;2.61;79.90;99409.89;1693106;84;21093;-82
2021/11/29 00:55:12;;;;;;;76.30;40.92;;;;;;;2.60;79.88;99406.42;1692625;83;21089;-82
2021/11/29 00:57:42;;;;;;;80.42;39.67;;;;;;;2.64;79.87;99406.12;1692545;84;21813;-82
2021/11/29 01:00:16;;;;;;;82.35;40.48;;;;;;;2.66;79.82;99401.86;1692632;84;21058;-82
2021/11/29 01:02:43;;;;;;;78.02;41.20;;;;;;;2.70;79.91;99401.13;1693383;84;28903;-82
2021/11/29 01:05:10;;;;;;;84.37;41.50;;;;;;;2.73;79.81;99399.94;1692853;84;21579;-82
2021/11/29 01:07:40;;;;;;;78.60;42.10;;;;;;;2.77;79.86;99399.64;1669101;84;21582;-83
2021/11/29 01:10:08;;;;;;;87.00;41.45;;;;;;;2.76;79.70;99400.06;1693283;84;21816;-82
2021/11/29 01:12:37;;;;;;;89.50;43.58;;;;;;;2.80;79.83;99403.66;1692761;84;21137;-82
2021/11/29 01:15:05;;;;;;;87.65;44.60;;;;;;;2.86;79.85;99403.85;1693136;84;21126;-82
2021/11/29 01:17:32;;;;;;;81.42;42.38;;;;;;;2.89;79.77;99405.23;1693096;84;21091;-82
2021/11/29 01:20:00;;;;;;;82.35;41.13;;;;;;;2.92;79.74;99407.52;1692850;84;21074;-82
2021/11/29 01:22:27;;;;;;;87.33;42.75;;;;;;;2.95;79.66;99408.45;1693115;84;21761;-83
2021/11/29 01:24:53;;;;;;;82.97;42.08;;;;;;;2.96;79.61;99407.64;1693199;84;21081;-83
2021/11/29 01:27:20;;;;;;;81.53;40.80;;;;;;;2.95;79.47;99404.56;1693019;84;21556;-83
2021/11/29 01:29:47;;;;;;;83.85;44.77;;;;;;;2.91;79.48;99404.90;1693095;84;21069;-82
2021/11/29 01:32:15;;;;;;;80.03;39.90;;;;;;;2.90;79.48;99407.89;1669222;84;21725;-82
2021/11/29 01:34:42;;;;;;;81.37;40.63;;;;;;;2.87;79.43;99407.81;1693212;84;21853;-82
2021/11/29 01:37:09;;;;;;;77.85;40.48;;;;;;;2.84;79.37;99409.41;1693194;84;21097;-82
2021/11/29 01:39:41;;;;;;;79.97;40.05;;;;;;;2.79;79.49;99405.77;1669243;84;21100;-81
2021/11/29 01:42:09;;;;;;;69.40;37.10;;;;;;;2.77;79.56;99400.52;1669037;84;21259;-82
2021/11/29 01:44:36;;;;;;;77.03;40.45;;;;;;;2.77;79.59;99399.21;1693355;84;21093;-82
2021/11/29 01:47:04;;;;;;;74.05;39.15;;;;;;;2.77;79.69;99391.41;1692884;84;21697;-81
2021/11/29 01:49:31;;;;;;;76.35;38.08;;;;;;;2.79;79.64;99386.28;1692972;84;21106;-82
2021/11/29 01:52:00;;;;;;;71.85;37.23;;;;;;;2.77;79.65;99376.25;1692976;83;21097;-82
2021/11/29 01:54:26;;;;;;;72.90;38.23;;;;;;;2.76;79.63;99377.06;1692617;84;21097;-81
2021/11/29 01:56:55;;;;;;;70.75;37.28;;;;;;;2.72;79.69;99374.78;1668928;84;21097;-83
2021/11/29 01:59:24;;;;;;;72.47;37.50;;;;;;;2.75;79.80;99370.13;1692773;84;22484;-82
2021/11/29 02:01:50;;;;;;;66.97;34.05;;;;;;;2.76;79.88;99368.87;1692929;84;21524;-82
2021/11/29 02:04:20;;;;;;;68.45;35.33;;;;;;;2.79;79.86;99368.96;1692516;84;21054;-82
2021/11/29 02:06:47;;;;;;;66.90;35.03;;;;;;;2.80;79.86;99372.47;1645816;85;21552;-81
2021/11/29 02:09:14;;;;;;;70.40;35.95;;;;;;;2.82;79.96;99367.78;1696066;83;21109;-81
2021/11/29 02:11:41;;;;;;;62.30;33.23;;;;;;;2.84;79.96;99362.64;1674069;85;21791;-82
2021/11/29 02:14:08;;;;;;;62.10;32.65;;;;;;;2.76;79.94;99347.19;1673827;85;21038;-82
2021/11/29 02:16:36;;;;;;;61.28;32.08;;;;;;;2.88;80.01;99361.91;1672938;85;21085;-81
2021/11/29 02:19:04;;;;;;;58.23;29.57;;;;;;;2.91;80.02;99356.39;1673503;85;21112;-81
2021/11/29 02:21:34;;;;;;;55.10;31.10;;;;;;;2.94;80.04;99352.13;1673466;85;21104;-81
2021/11/29 02:24:06;;;;;;;58.80;30.88;;;;;;;2.95;80.00;99349.97;1673919;85;21763;-81
2021/11/29 02:26:37;;;;;;;56.48;31.90;;;;;;;2.97;80.01;99347.04;1673777;85;21596;-81
2021/11/29 02:29:12;;;;;;;61.65;32.42;;;;;;;2.99;80.07;99340.17;1673813;85;21113;-82
2021/11/29 02:31:48;;;;;;;59.48;31.52;;;;;;;3.00;80.01;99342.80;1690868;84;21085;-82
2021/11/29 02:34:21;;;;;;;63.00;34.38;;;;;;;3.00;79.91;99339.32;1690997;84;21101;-81
2021/11/29 02:36:49;;;;;;;57.40;31.52;;;;;;;2.99;79.94;99341.47;1689121;83;28022;-82
2021/11/29 02:39:16;;;;;;;56.23;30.30;;;;;;;2.96;79.84;99340.06;1689427;83;21096;-81
2021/11/29 02:41:43;;;;;;;53.80;30.00;;;;;;;2.94;79.92;99343.91;1689793;83;21087;-81
2021/11/29 02:44:14;;;;;;;56.18;31.93;;;;;;;2.93;79.88;99344.75;1671700;83;21114;-81
2021/11/29 02:46:42;;;;;;;54.77;29.37;;;;;;;2.89;79.84;99348.05;1689647;84;21091;-81
2021/11/29 02:49:10;;;;;;;53.52;30.65;;;;;;;2.83;79.87;99350.03;1689149;83;21087;-81
2021/11/29 02:51:45;;;;;;;52.93;30.37;;;;;;;2.81;79.92;99347.80;1689507;84;21385;-81
2021/11/29 02:54:21;;;;;;;55.67;31.45;;;;;;;2.78;79.87;99346.42;1689490;84;21134;-81
2021/11/29 02:56:50;;;;;;;54.75;31.07;;;;;;;2.74;79.97;99341.97;1689343;84;21083;-81
2021/11/29 02:59:23;;;;;;;56.53;32.05;;;;;;;2.69;79.96;99338.32;1689341;83;21115;-82
2021/11/29 03:01:53;;;;;;;59.08;33.15;;;;;;;2.66;80.07;99342.10;1671340;84;25383;-81
2021/11/29 03:04:22;;;;;;;59.75;32.53;;;;;;;2.64;80.21;99343.77;1689128;84;21602;-81
2021/11/29 03:06:49;;;;;;;55.58;32.80;;;;;;;2.63;80.21;99343.31;1682984;84;21112;-82
2021/11/29 03:09:16;;;;;;;53.87;32.23;;;;;;;2.64;80.36;99343.34;1657887;85;21172;-81
2021/11/29 03:11:43;;;;;;;53.45;32.33;;;;;;;2.68;80.41;99341.73;1681660;84;21030;-82
2021/11/29 03:14:09;;;;;;;58.28;33.78;;;;;;;2.66;80.32;99346.88;1681539;84;21770;-81
2021/11/29 03:16:36;;;;;;;58.40;35.05;;;;;;;2.68;80.34;99340.05;1681462;84;21089;-81
2021/11/29 03:19:03;;;;;;;56.00;33.28;;;;;;;2.68;80.30;99337.84;1681467;85;21148;-81
2021/11/29 03:21:30;;;;;;;56.60;34.35;;;;;;;2.70;80.37;99334.88;1681543;84;21551;-82
2021/11/29 03:23:59;;;;;;;64.42;35.70;;;;;;;2.71;80.35;99333.62;1681497;84;21164;-82
2021/11/29 03:26:27;;;;;;;62.03;37.10;;;;;;;2.72;80.35;99322.81;1681599;84;21783;-82
2021/11/29 03:28:57;;;;;;;64.12;36.45;;;;;;;2.70;80.19;99319.28;1681161;85;21572;-82
2021/11/29 03:31:25;;;;;;;58.63;36.25;;;;;;;2.66;80.35;99318.30;1681289;85;21120;-82
2021/11/29 03:33:57;;;;;;;61.73;37.63;;;;;;;2.69;80.44;99314.94;1681450;85;21097;-82
2021/11/29 03:36:25;;;;;;;60.48;36.68;;;;;;;2.70;80.43;99327.08;1680840;85;21096;-81
2021/11/29 03:38:52;;;;;;;60.00;35.50;;;;;;;2.69;80.33;99330.53;1681659;85;24102;-82
2021/11/29 03:41:21;;;;;;;65.22;35.88;;;;;;;2.56;80.43;99306.27;1681736;85;21160;-82
2021/11/29 03:43:48;;;;;;;63.48;34.75;;;;;;;2.70;80.49;99332.27;1681693;85;21128;-81
2021/11/29 03:46:15;;;;;;;60.12;34.50;;;;;;;2.68;80.41;99330.05;1681579;84;21164;-80
2021/11/29 03:48:41;;;;;;;60.73;34.95;;;;;;;2.68;80.54;99325.75;1681362;84;21104;-81
2021/11/29 03:51:10;;;;;;;57.10;33.85;;;;;;;2.73;80.60;99331.09;1681347;85;22403;-81
2021/11/29 03:53:37;;;;;;;58.78;33.78;;;;;;;2.75;80.55;99322.05;1681116;85;21100;-81
2021/11/29 03:56:07;;;;;;;55.88;32.30;;;;;;;2.73;80.52;99327.19;1681095;83;21164;-80
2021/11/29 03:58:37;;;;;;;53.83;31.50;;;;;;;2.75;80.64;99322.92;1680669;84;21104;-81
2021/11/29 04:01:12;;;;;;;54.90;31.77;;;;;;;2.76;80.55;99319.52;1656144;85;21776;-81
2021/11/29 04:03:34;;;;;;;51.15;30.20;;;;;;;2.75;80.55;99311.23;1678346;85;22759;-81
2021/11/29 04:06:05;;;;;;;51.50;30.57;;;;;;;2.77;80.59;99309.56;1677763;84;21624;-80
2021/11/29 04:08:31;;;;;;;52.75;30.40;;;;;;;2.81;80.61;99315.75;1667073;85;21121;-81
2021/11/29 04:10:58;;;;;;;50.65;30.92;;;;;;;2.81;80.52;99320.52;1667718;85;21077;-81
2021/11/29 04:13:25;;;;;;;53.85;30.55;;;;;;;2.81;80.48;99319.65;1667465;85;21801;-81
2021/11/29 04:15:57;;;;;;;48.85;29.45;;;;;;;2.81;80.51;99323.13;1667248;85;23112;-81
2021/11/29 04:18:23;;;;;;;49.27;29.87;;;;;;;2.81;80.43;99319.22;1667381;85;21112;-81
2021/11/29 04:20:52;;;;;;;48.00;27.32;;;;;;;2.82;80.56;99311.03;1667252;85;21108;-80
2021/11/29 04:23:18;;;;;;;45.58;28.07;;;;;;;2.83;80.52;99312.36;1667314;85;21090;-81
2021/11/29 04:25:50;;;;;;;46.08;27.75;;;;;;;2.82;80.53;99305.41;1667613;85;21109;-81
2021/11/29 04:28:14;;;;;;;42.27;25.17;;;;;;;2.81;80.51;99302.33;1667135;85;22476;-81
2021/11/29 04:30:41;;;;;;;46.28;27.37;;;;;;;2.79;80.53;99304.00;1667234;86;21754;-81
2021/11/29 04:33:08;;;;;;;49.40;27.60;;;;;;;2.80;80.63;99301.88;1667570;86;21074;-80
2021/11/29 04:35:35;;;;;;;46.20;27.07;;;;;;;2.84;80.69;99291.17;1667553;85;21110;-80
2021/11/29 04:38:02;;;;;;;46.25;26.95;;;;;;;2.86;80.71;99294.28;1667708;84;21105;-80
2021/11/29 04:40:28;;;;;;;40.60;25.97;;;;;;;2.86;80.65;99281.28;1667614;84;21583;-80
2021/11/29 04:43:00;;;;;;;43.28;24.90;;;;;;;2.88;80.67;99287.41;1667433;85;21596;-80
2021/11/29 04:45:25;;;;;;;40.85;24.55;;;;;;;2.88;80.69;99277.44;1667444;84;21113;-81
2021/11/29 04:47:52;;;;;;;40.48;23.60;;;;;;;2.94;80.65;99285.84;1667875;85;21086;-81
2021/11/29 04:50:19;;;;;;;42.83;24.18;;;;;;;2.92;80.64;99274.97;1667599;84;21146;-81
2021/11/29 04:52:46;;;;;;;37.30;22.42;;;;;;;2.92;80.56;99276.27;1667718;84;21808;-80
2021/11/29 04:55:15;;;;;;;32.40;20.37;;;;;;;2.96;80.81;99275.08;1667758;84;21082;-81
2021/11/29 04:57:41;;;;;;;34.65;21.25;;;;;;;2.98;80.73;99271.69;1667754;84;21113;-81
2021/11/29 05:00:13;;;;;;;34.43;20.62;;;;;;;2.97;80.68;99270.36;1667669;86;21655;-81
2021/11/29 05:02:39;;;;;;;37.58;22.55;;;;;;;2.98;80.74;99270.81;1667959;85;21097;-81
2021/11/29 05:05:07;;;;;;;29.50;19.45;;;;;;;2.98;80.68;99268.21;1667535;86;21797;-81
2021/11/29 05:07:39;;;;;;;31.75;21.60;;;;;;;3.00;80.74;99263.94;1667325;84;21137;-82
2021/11/29 05:10:05;;;;;;;29.63;18.55;;;;;;;2.99;80.70;99270.86;1667688;85;21108;-81
2021/11/29 05:12:36;;;;;;;30.75;20.37;;;;;;;2.97;80.68;99275.14;1648648;85;21198;-81
2021/11/29 05:15:01;;;;;;;31.60;19.60;;;;;;;2.95;80.74;99277.20;1667547;85;21133;-81
2021/11/29 05:17:31;;;;;;;36.20;22.00;;;;;;;2.95;80.74;99277.20;1667739;85;21730;-81
2021/11/29 05:19:59;;;;;;;32.48;21.12;;;;;;;2.90;80.75;99275.77;1667077;85;21695;-80
2021/11/29 05:22:25;;;;;;;31.65;20.97;;;;;;;2.87;80.68;99273.97;1666993;85;21364;-77
2021/11/29 05:24:52;;;;;;;35.25;21.52;;;;;;;2.88;80.85;99278.31;1670793;84;21550;-77
2021/11/29 05:27:18;;;;;;;31.87;20.85;;;;;;;2.88;80.80;99279.61;1649944;85;21117;-75
2021/11/29 05:29:45;;;;;;;35.92;21.55;;;;;;;2.88;80.92;99280.04;1671456;84;21739;-77
2021/11/29 05:32:12;;;;;;;35.35;22.02;;;;;;;2.89;80.82;99288.28;1673511;85;21152;-78
2021/11/29 05:34:41;;;;;;;30.80;19.73;;;;;;;2.91;80.92;99293.14;1655194;85;21163;-77
2021/11/29 05:37:08;;;;;;;31.62;20.30;;;;;;;2.90;80.80;99287.04;1656862;85;21128;-77
2021/11/29 05:39:38;;;;;;;30.08;19.92;;;;;;;2.90;80.87;99292.66;1660022;85;21677;-77
2021/11/29 05:42:06;;;;;;;29.12;18.07;;;;;;;2.90;80.88;99290.94;1660087;86;22491;-77
2021/11/29 05:44:33;;;;;;;26.12;17.77;;;;;;;2.91;80.91;99295.31;1660237;85;21140;-80
2021/11/29 05:47:02;;;;;;;27.15;18.10;;;;;;;2.91;80.89;99297.04;1660700;85;21128;-87
2021/11/29 05:49:29;;;;;;;26.02;17.00;;;;;;;2.86;80.82;99294.28;1617236;86;21148;-87
2021/11/29 05:52:00;;;;;;;25.88;16.57;;;;;;;2.87;80.99;99300.34;1660613;86;21080;-79
2021/11/29 05:54:27;;;;;;;24.70;15.83;;;;;;;2.87;80.95;99300.34;1660165;86;22452;-78
2021/11/29 05:56:58;;;;;;;25.23;15.90;;;;;;;2.86;81.02;99303.38;1659152;85;21018;-75
2021/11/29 05:59:25;;;;;;;24.60;15.00;;;;;;;2.82;80.92;99298.04;1659547;85;21085;-75
2021/11/29 06:01:55;;;;;;;22.15;15.03;;;;;;;2.79;81.05;99304.42;1659709;85;21685;-75
2021/11/29 06:04:23;;;;;;;22.60;15.03;;;;;;;2.77;81.25;99308.27;1659579;85;21107;-75
2021/11/29 06:06:50;;;;;;;23.77;15.75;;;;;;;2.77;81.24;99304.80;1663167;85;21775;-75
2021/11/29 06:09:18;;;;;;;21.52;15.25;;;;;;;2.78;81.35;99308.75;1673142;84;21120;-75
2021/11/29 06:11:50;;;;;;;23.30;14.95;;;;;;;2.82;81.43;99301.94;1673485;84;21096;-75
2021/11/29 06:14:17;;;;;;;19.02;13.45;;;;;;;2.85;81.42;99302.92;1674336;85;21144;-75
2021/11/29 06:16:44;;;;;;;21.95;15.48;;;;;;;2.85;81.31;99296.42;1696308;83;21485;-77
2021/11/29 06:19:16;;;;;;;24.57;15.50;;;;;;;2.85;81.32;99300.72;1698445;83;21820;-80
2021/11/29 06:21:41;;;;;;;23.10;15.32;;;;;;;2.85;81.33;99304.22;1698612;83;21097;-77
2021/11/29 06:24:08;;;;;;;24.07;15.88;;;;;;;2.86;81.35;99305.09;1699546;83;21093;-78
2021/11/29 06:26:36;;;;;;;26.48;16.90;;;;;;;2.86;81.30;99304.67;1698768;83;21085;-77
2021/11/29 06:29:03;;;;;;;22.95;15.10;;;;;;;2.86;81.26;99307.70;1699522;84;21104;-78
2021/11/29 06:31:30;;;;;;;20.57;14.33;;;;;;;2.87;81.33;99310.35;1699430;83;21738;-79
2021/11/29 06:34:04;;;;;;;25.00;15.45;;;;;;;2.86;81.24;99309.87;1699231;84;21077;-79
2021/11/29 06:36:29;;;;;;;19.37;13.30;;;;;;;2.89;81.33;99311.28;1684803;82;21077;-78
2021/11/29 06:38:58;;;;;;;20.43;13.83;;;;;;;2.91;81.33;99312.63;1677320;85;21513;-78
2021/11/29 06:41:25;;;;;;;20.75;13.83;;;;;;;2.94;81.38;99310.11;1677383;85;21551;-79
2021/11/29 06:43:52;;;;;;;19.57;13.30;;;;;;;2.97;81.37;99311.95;1677458;85;22603;-78
2021/11/29 06:46:18;;;;;;;21.20;13.50;;;;;;;2.96;81.31;99311.05;1677265;84;21089;-78
2021/11/29 06:48:46;;;;;;;21.02;14.40;;;;;;;2.98;81.37;99312.40;1677428;85;21598;-79
2021/11/29 06:51:12;;;;;;;21.25;13.83;;;;;;;3.00;81.40;99311.60;1677416;85;21558;-79
2021/11/29 06:53:41;;;;;;;20.68;13.75;;;;;;;3.02;81.39;99318.16;1677515;85;21730;-78
2021/11/29 06:56:07;;;;;;;20.35;13.68;;;;;;;3.02;81.39;99311.66;1677308;85;23181;-78
2021/11/29 06:58:36;;;;;;;22.25;13.55;;;;;;;3.05;81.41;99320.86;1677258;85;21104;-78
2021/11/29 07:01:04;;;;;;;21.77;14.30;;;;;;;3.03;81.23;99321.23;1677592;85;21069;-78
2021/11/29 07:03:31;;;;;;;21.97;14.15;;;;;;;3.00;81.34;99320.70;1677648;84;21659;-78
2021/11/29 07:05:58;;;;;;;22.50;14.23;;;;;;;3.02;81.42;99318.16;1648867;85;21626;-78
2021/11/29 07:08:25;;;;;;;21.70;13.72;;;;;;;3.01;81.37;99312.51;1677000;85;21815;-78
2021/11/29 07:10:52;;;;;;;19.82;13.20;;;;;;;3.03;81.44;99313.44;1677235;84;21076;-79
2021/11/29 07:13:18;;;;;;;25.27;13.35;;;;;;;3.05;81.48;99305.27;1677347;84;21536;-78
2021/11/29 07:15:47;;;;;;;22.87;13.03;;;;;;;3.05;81.41;99308.73;1676928;85;21089;-78
2021/11/29 07:18:17;;;;;;;20.08;13.22;;;;;;;3.07;81.41;99304.89;1677335;84;21085;-78
2021/11/29 07:20:43;;;;;;;21.65;11.80;;;;;;;3.06;81.34;99313.52;1677406;84;22478;-79
2021/11/29 07:23:10;;;;;;;17.82;11.93;;;;;;;3.08;81.38;99307.98;1677032;84;21624;-78
2021/11/29 07:25:37;;;;;;;20.60;11.30;;;;;;;3.09;81.48;99305.83;1677409;84;21084;-78
2021/11/29 07:28:08;;;;;;;20.45;12.65;;;;;;;3.12;81.47;99315.03;1677520;85;21144;-79
2021/11/29 07:30:33;;;;;;;17.30;11.50;;;;;;;3.18;81.60;99306.55;1677142;84;21081;-78
2021/11/29 07:33:00;;;;;;;18.12;11.83;;;;;;;3.23;81.60;99312.74;1677541;85;22607;-78
2021/11/29 07:35:28;;;;;;;17.37;11.48;;;;;;;3.26;81.50;99316.75;1677000;84;21069;-78
2021/11/29 07:37:56;;;;;;;18.00;11.45;;;;;;;3.30;81.52;99316.91;1699553;83;21034;-78
2021/11/29 07:40:29;;;;;;;19.77;12.40;;;;;;;3.34;81.50;99307.87;1700008;84;21556;-78
2021/11/29 07:43:03;;;;;;;22.97;14.00;;;;;;;3.37;81.43;99316.66;1700215;83;21595;-78
2021/11/29 07:45:30;;;;;;;24.35;13.93;;;;;;;3.39;81.41;99315.41;1700230;83;21774;-78
2021/11/29 07:47:57;;;;;;;19.52;12.07;;;;;;;3.41;81.37;99314.61;1699684;83;21078;-80
2021/11/29 07:50:24;;;;;;;18.98;11.97;;;;;;;3.43;81.39;99322.47;1700191;84;21073;-81
2021/11/29 07:52:51;;;;;;;22.40;12.45;;;;;;;3.46;81.41;99322.58;1700440;84;21116;-80
2021/11/29 07:55:23;;;;;;;24.77;13.72;;;;;;;3.46;81.37;99318.25;1699983;84;21089;-81
2021/11/29 07:57:48;;;;;;;23.18;14.40;;;;;;;3.46;81.28;99313.05;1699763;84;22453;-81
2021/11/29 08:00:19;;;;;;;21.97;13.70;;;;;;;3.49;81.33;99310.94;1700088;83;21030;-80
2021/11/29 08:02:46;;;;;;;24.70;13.95;;;;;;;3.52;81.38;99312.77;1699855;83;21150;-80
2021/11/29 08:05:13;;;;;;;27.00;13.40;;;;;;;3.57;81.50;99310.77;1699901;83;21152;-80
2021/11/29 08:07:39;;;;;;;24.05;12.73;;;;;;;3.60;81.45;99312.58;1694880;83;21621;-80
2021/11/29 08:10:07;;;;;;;23.73;12.82;;;;;;;3.63;81.41;99315.28;1684281;85;21821;-80
2021/11/29 08:12:33;;;;;;;20.10;11.10;;;;;;;3.63;81.41;99311.38;1684525;85;21086;-80
2021/11/29 08:15:00;;;;;;;17.57;10.18;;;;;;;3.67;81.39;99312.80;1684720;85;21611;-78
2021/11/29 08:17:27;;;;;;;15.03;9.88;;;;;;;3.74;81.35;99315.60;1684361;85;21094;-78
2021/11/29 08:19:54;;;;;;;18.62;11.33;;;;;;;3.76;81.20;99326.94;1684299;85;21074;-78
2021/11/29 08:22:20;;;;;;;15.03;9.83;;;;;;;3.69;81.00;99316.75;1684475;85;21738;-78
2021/11/29 08:24:47;;;;;;;15.10;10.08;;;;;;;3.57;81.08;99305.57;1684471;85;21087;-78
2021/11/29 08:27:14;;;;;;;14.07;9.53;;;;;;;3.62;81.10;99316.09;1684354;85;21078;-79
2021/11/29 08:29:41;;;;;;;16.95;9.65;;;;;;;3.61;81.10;99323.45;1684268;85;21683;-79
2021/11/29 08:32:08;;;;;;;16.40;10.03;;;;;;;3.57;81.25;99329.41;1684476;85;21094;-79
2021/11/29 08:34:37;;;;;;;14.20;9.98;;;;;;;3.58;81.38;99333.34;1684560;85;22466;-79
2021/11/29 08:37:03;;;;;;;17.52;10.10;;;;;;;3.60;81.27;99322.55;1684437;85;21011;-79
2021/11/29 08:39:29;;;;;;;16.93;10.58;;;;;;;3.60;81.23;99332.96;1684589;85;22322;-79
2021/11/29 08:41:56;;;;;;;17.25;10.78;;;;;;;3.60;81.37;99329.05;1684492;85;21091;-79
2021/11/29 08:44:23;;;;;;;17.95;10.78;;;;;;;3.64;81.48;99329.64;1684543;85;21090;-79
2021/11/29 08:46:50;;;;;;;19.60;11.05;;;;;;;3.64;81.34;99337.45;1684313;85;21748;-79
2021/11/29 08:49:17;;;;;;;15.45;10.40;;;;;;;3.60;81.16;99337.29;1684296;85;21396;-78
2021/11/29 08:51:44;;;;;;;14.70;10.15;;;;;;;3.53;81.19;99331.04;1684554;85;21584;-79
2021/11/29 08:54:11;;;;;;;17.95;11.63;;;;;;;3.44;81.09;99333.36;1684524;85;21140;-79
2021/11/29 08:56:37;;;;;;;17.07;10.68;;;;;;;3.35;81.18;99330.47;1662554;85;21587;-79
2021/11/29 08:59:04;;;;;;;17.42;11.73;;;;;;;3.39;81.57;99333.62;1684524;85;21742;-79
2021/11/29 09:01:31;;;;;;;17.23;11.85;;;;;;;3.41;81.61;99328.05;1684341;85;21101;-79
2021/11/29 09:03:58;;;;;;;24.40;13.40;;;;;;;3.49;81.92;99333.05;1684332;85;21118;-79
2021/11/29 09:06:24;;;;;;;19.85;13.32;;;;;;;3.57;82.00;99334.62;1684241;85;21579;-79
2021/11/29 09:08:51;;;;;;;25.55;13.45;;;;;;;3.64;81.98;99335.23;1684194;84;21110;-78
2021/11/29 09:11:18;;;;;;;23.00;14.25;;;;;;;3.67;81.85;99336.64;1683917;85;22303;-79
2021/11/29 09:13:45;;;;;;;22.60;14.58;;;;;;;3.75;81.84;99331.66;1684228;85;21070;-79
2021/11/29 09:16:13;;;;;;;20.65;13.15;;;;;;;3.82;81.94;99324.50;1684580;85;21047;-79
2021/11/29 09:18:40;;;;;;;20.77;12.80;;;;;;;3.87;81.77;99327.70;1684592;85;21082;-79
2021/11/29 09:21:07;;;;;;;19.90;13.13;;;;;;;3.86;81.69;99327.22;1684551;85;21909;-79
2021/11/29 09:23:33;;;;;;;19.15;12.58;;;;;;;3.85;81.54;99332.41;1684773;85;21746;-79
2021/11/29 09:26:00;;;;;;;20.45;13.28;;;;;;;3.84;81.64;99325.42;1684494;85;21620;-79
2021/11/29 09:28:27;;;;;;;22.60;13.72;;;;;;;3.90;81.80;99321.69;1684429;85;21073;-79
2021/11/29 09:30:54;;;;;;;20.05;13.75;;;;;;;3.97;81.82;99322.33;1684447;85;21098;-79
2021/11/29 09:33:21;;;;;;;22.27;12.82;;;;;;;4.04;81.85;99318.19;1684506;85;21149;-79
2021/11/29 09:35:48;;;;;;;22.48;13.98;;;;;;;4.12;81.71;99322.31;1684405;85;21782;-79
2021/11/29 09:38:15;;;;;;;21.52;13.20;;;;;;;4.16;81.68;99311.13;1684287;85;21102;-79
2021/11/29 09:40:42;;;;;;;23.15;10.58;;;;;;;4.20;81.61;99308.64;1684501;85;21066;-79
2021/11/29 09:43:12;;;;;;;16.87;9.93;;;;;;;4.27;81.57;99305.36;1684606;85;21295;-79
2021/11/29 09:45:41;;;;;;;13.28;8.88;;;;;;;4.34;81.61;99307.73;1684529;85;21101;-79
2021/11/29 09:48:08;;;;;;;11.68;7.28;;;;;;;4.29;81.47;99287.18;1684524;85;21859;-79
2021/11/29 09:50:38;;;;;;;9.78;5.28;;;;;;;4.41;81.57;99307.05;1684221;85;21183;-79
2021/11/29 09:53:04;;;;;;;6.78;4.60;;;;;;;4.50;81.54;99305.09;1684980;85;21078;-79
2021/11/29 09:55:31;;;;;;;8.80;4.97;;;;;;;4.51;81.11;99312.08;1684242;85;21077;-79
2021/11/29 09:57:58;;;;;;;12.23;6.62;;;;;;;4.41;81.06;99313.57;1684288;85;21085;-79
2021/11/29 10:00:29;;;;;;;12.80;7.10;;;;;;;4.38;81.20;99307.39;1684435;85;21774;-79
2021/11/29 10:02:56;;;;;;;10.48;7.12;;;;;;;4.37;81.27;99309.52;1684603;85;21125;-78
2021/11/29 10:05:23;;;;;;;8.15;5.78;;;;;;;4.41;81.44;99307.05;1684549;85;21360;-78
2021/11/29 10:07:50;;;;;;;11.40;7.28;;;;;;;4.44;81.29;99311.02;1686473;84;21094;-79
2021/11/29 10:10:30;;;;;;;9.05;6.28;;;;;;;4.45;81.24;99315.41;1699615;84;21586;-78
2021/11/29 10:13:03;;;;;;;8.10;5.97;;;;;;;4.47;81.45;99310.24;1699700;83;23028;-78
2021/11/29 10:15:36;;;;;;;8.00;5.50;;;;;;;4.52;81.56;99314.25;1699392;84;21149;-78
2021/11/29 10:18:25;;;;;;;7.57;5.17;;;;;;;4.64;81.46;99305.03;1700028;84;22525;-78
2021/11/29 10:21:02;;;;;;;7.25;4.30;;;;;;;4.75;81.37;99309.22;1699635;84;21567;-78
2021/11/29 10:23:42;;;;;;;6.40;4.03;;;;;;;4.76;81.09;99304.45;1700043;83;21536;-78
2021/11/29 10:26:21;;;;;;;7.00;4.72;;;;;;;4.81;81.18;99296.33;1698893;83;22696;-80
2021/11/29 10:28:57;;;;;;;6.60;4.42;;;;;;;4.84;81.16;99303.34;1700028;84;21337;-79
2021/11/29 10:31:31;;;;;;;7.25;4.97;;;;;;;4.87;80.96;99301.69;1698180;83;21367;-79
2021/11/29 10:34:06;;;;;;;;;;;;;;;4.90;80.78;99301.30;1702421;84;21112;-79
2021/11/29 10:36:39;;;;;;;5.00;3.27;;;;;;;4.83;80.48;99297.68;1674269;84;20540;-79
2021/11/29 10:39:11;;;;;;;9.48;3.47;;;;;;;4.82;80.60;99306.33;1699032;83;21791;-79
2021/11/29 10:41:50;;;;;;;3.67;1.98;;;;;;;4.75;80.35;99298.80;1699685;84;29041;-79
2021/11/29 10:44:19;;;;;;;4.10;2.40;;;;;;;4.77;80.57;99301.45;1699764;83;21074;-79
2021/11/29 10:46:48;;;;;;;3.22;2.08;;;;;;;4.78;80.48;99296.67;1699825;83;21066;-79
2021/11/29 10:49:18;;;;;;;4.40;2.90;;;;;;;4.82;80.62;99297.20;1699901;84;21176;-79
2021/11/29 10:51:49;;;;;;;3.45;2.90;;;;;;;4.83;80.61;99297.68;1699843;83;21786;-79
2021/11/29 10:54:20;;;;;;;6.72;3.20;;;;;;;4.80;80.58;99298.90;1671812;84;21077;-79
2021/11/29 10:56:47;;;;;;;5.67;3.83;;;;;;;4.74;80.58;99294.84;1673800;84;21097;-79
2021/11/29 10:59:20;;;;;;;8.08;4.22;;;;;;;4.73;80.76;99295.27;1699822;83;21543;-79
2021/11/29 11:01:53;;;;;;;9.70;5.08;;;;;;;4.69;80.66;99285.59;1699941;83;21687;-78
2021/11/29 11:04:30;;;;;;;8.35;4.37;;;;;;;4.71;80.80;99282.63;1700069;84;21771;-79
2021/11/29 11:07:04;;;;;;;3.55;2.62;;;;;;;4.69;80.79;99288.20;1699257;84;21594;-78
2021/11/29 11:09:37;;;;;;;4.53;2.62;;;;;;;4.65;80.51;99283.36;1698765;83;21046;-79
2021/11/29 11:12:14;;;;;;;2.85;1.80;;;;;;;4.53;80.43;99271.30;1699556;84;21602;-79
2021/11/29 11:14:53;;;;;;;3.55;2.10;;;;;;;4.48;80.54;99278.98;1699812;84;21065;-78
2021/11/29 11:17:22;;;;;;;5.75;2.67;;;;;;;4.47;80.82;99274.64;1699286;84;22772;-79
2021/11/29 11:19:53;;;;;;;7.87;4.85;;;;;;;4.52;81.03;99269.53;1699678;84;21447;-78
2021/11/29 11:22:35;;;;;;;9.20;4.42;;;;;;;4.59;81.38;99270.58;1700048;83;21094;-78
2021/11/29 11:25:12;;;;;;;10.80;4.15;;;;;;;4.62;81.11;99262.85;1699846;84;21069;-79
2021/11/29 11:27:46;;;;;;;6.10;3.72;;;;;;;4.64;81.14;99257.25;1699552;84;21101;-81
2021/11/29 11:30:14;;;;;;;4.40;3.00;;;;;;;4.67;81.07;99270.34;1698868;83;21789;-81
2021/11/29 11:32:56;;;;;;;7.35;3.87;;;;;;;4.70;80.95;99266.52;1700244;83;21572;-81
2021/11/29 11:35:29;;;;;;;4.40;2.80;;;;;;;4.64;80.71;99265.94;1700226;84;21101;-80